createdAt,value
2019-05-19T00:08:47.749Z,13.2
2019-05-19T00:18:47.876Z,12.9
2019-05-19T00:28:47.148Z,13.1
2019-05-19T00:38:46.310Z,13.2
2019-05-19T00:48:45.527Z,12.9
2019-05-19T00:58:44.746Z,12.6
2019-05-19T01:08:43.960Z,13.2
2019-05-19T01:18:43.170Z,12.6
2019-05-19T01:28:42.443Z,12.7
2019-05-19T01:38:41.606Z,13.1
2019-05-19T01:48:40.822Z,12.7
2019-05-19T01:58:40.045Z,12.6
2019-05-19T02:08:39.247Z,12.5
2019-05-19T02:18:38.460Z,12.6
2019-05-19T02:28:37.677Z,12.4
2019-05-19T02:38:36.901Z,13
2019-05-19T02:48:36.106Z,12.5
2019-05-19T02:58:35.324Z,12.5
2019-05-19T03:08:34.544Z,12.6
2019-05-19T03:18:33.751Z,13.2
2019-05-19T03:28:32.974Z,12.6
2019-05-19T03:38:32.181Z,13.7
2019-05-19T03:48:31.399Z,14.1
2019-05-19T03:58:30.614Z,14.7
2019-05-19T04:08:29.829Z,14.4
2019-05-19T04:18:29.049Z,14.4
2019-05-19T04:28:28.253Z,13.8
2019-05-19T04:38:27.478Z,14.4
2019-05-19T04:48:26.687Z,14.3
2019-05-19T04:58:25.901Z,14
2019-05-19T05:08:30.109Z,14.3
2019-05-19T05:18:24.328Z,13.8
2019-05-19T05:28:23.542Z,14.6
2019-05-19T05:38:22.760Z,14.2
2019-05-19T05:48:21.975Z,14.2
2019-05-19T05:58:21.249Z,14.2
2019-05-19T06:08:20.409Z,14.1
2019-05-19T06:18:19.616Z,14.3
2019-05-19T06:28:18.833Z,14.2
2019-05-19T06:38:18.054Z,14.6
2019-05-19T06:48:17.268Z,14.5
2019-05-19T06:58:16.481Z,14.4
2019-05-19T07:08:15.716Z,14.8
2019-05-19T07:18:14.911Z,13.9
2019-05-19T07:28:14.132Z,14
2019-05-19T07:38:13.359Z,13.8
2019-05-19T07:48:12.570Z,14.1
2019-05-19T07:58:11.792Z,13.8
2019-05-19T08:08:11.005Z,14
2019-05-19T08:18:10.214Z,14.4
2019-05-19T08:28:09.439Z,13.8
2019-05-19T08:38:08.701Z,13.8
2019-05-19T08:48:07.870Z,14
2019-05-19T08:58:07.089Z,14.4
2019-05-19T09:08:06.309Z,13.9
2019-05-19T09:18:05.517Z,14.4
2019-05-19T09:28:04.734Z,14.3
2019-05-19T09:38:03.955Z,14.6
2019-05-19T09:48:03.169Z,14.4
2019-05-19T09:58:02.480Z,14.2
2019-05-19T10:08:01.607Z,14.2
2019-05-19T10:18:00.827Z,13.8
2019-05-19T10:28:00.031Z,14.7
2019-05-19T10:37:59.255Z,14.3
2019-05-19T10:47:58.473Z,14.1
2019-05-19T10:57:57.746Z,14.2
2019-05-19T11:07:56.908Z,13.8
2019-05-19T11:17:56.119Z,13.8
2019-05-19T11:27:55.337Z,14.2
2019-05-19T11:37:54.562Z,13.9
2019-05-19T11:47:53.779Z,13.8
2019-05-19T11:57:52.992Z,14.3
2019-05-19T12:07:52.224Z,13.8
2019-05-19T12:17:51.437Z,14.2
2019-05-19T12:27:50.651Z,14.4
2019-05-19T12:37:49.863Z,14
2019-05-19T12:47:49.092Z,14
2019-05-19T12:57:48.309Z,14.7
2019-05-19T13:07:47.520Z,14.3
2019-05-19T13:17:46.731Z,14.1
2019-05-19T13:27:45.955Z,14.2
2019-05-19T13:37:45.174Z,14.6
2019-05-19T13:47:44.399Z,14.7
2019-05-19T13:57:43.615Z,14.6
2019-05-19T14:07:42.828Z,14.7
2019-05-19T14:17:42.048Z,13.3
2019-05-19T14:27:41.277Z,14.3
2019-05-19T14:37:40.479Z,13.8
2019-05-19T14:47:39.705Z,14.6
2019-05-19T14:57:44.678Z,14.5
2019-05-19T15:07:38.139Z,14.4
2019-05-19T15:17:37.369Z,12.9
2019-05-19T15:27:36.582Z,13.1
2019-05-19T15:37:35.800Z,13
2019-05-19T15:47:35.014Z,12.8
2019-05-19T15:57:34.234Z,13.1
2019-05-19T16:07:33.466Z,13.2
2019-05-19T16:17:32.676Z,12.4
2019-05-19T16:27:31.939Z,12.6
2019-05-19T16:37:31.123Z,13.2
2019-05-19T16:47:30.338Z,13
2019-05-19T16:57:29.624Z,13.2
2019-05-19T17:07:28.817Z,12.8
2019-05-19T17:17:28.019Z,13.1
2019-05-19T17:27:27.259Z,13.2
2019-05-19T17:37:26.473Z,12.9
2019-05-19T17:47:25.743Z,13
2019-05-19T17:57:24.914Z,13.2
2019-05-19T18:07:24.151Z,12.6
2019-05-19T18:17:23.371Z,13.2
2019-05-19T18:27:22.585Z,12.6
2019-05-19T18:37:21.835Z,13
2019-05-19T18:47:21.030Z,13.2
2019-05-19T18:57:20.249Z,12.8
2019-05-19T19:07:19.469Z,12.6
2019-05-19T19:17:18.713Z,13.1
2019-05-19T19:27:17.906Z,12.6
2019-05-19T19:37:17.133Z,12.5
2019-05-19T19:47:16.354Z,12.9
2019-05-19T19:57:15.574Z,12.6
2019-05-19T20:07:14.795Z,13.1
2019-05-19T20:17:14.075Z,12.5
2019-05-19T20:27:13.236Z,13.1
2019-05-19T20:37:15.060Z,12.6
2019-05-19T20:47:11.730Z,13.2
2019-05-19T20:57:10.898Z,12.8
2019-05-19T21:09:01.352Z,12.7
2019-05-19T21:19:00.573Z,12.5
2019-05-19T21:28:59.800Z,13.1
2019-05-19T21:38:59.018Z,12.5
2019-05-19T21:48:58.243Z,12.5
2019-05-19T21:58:57.457Z,12.6
2019-05-19T22:08:56.688Z,13.1
2019-05-19T22:18:56.002Z,12.8
2019-05-19T22:28:55.309Z,13
2019-05-19T22:38:54.640Z,12.9
2019-05-19T22:48:53.922Z,12.9
2019-05-19T22:58:53.219Z,12.7
2019-05-19T23:08:52.483Z,13.1
2019-05-19T23:18:51.757Z,12.9
2019-05-19T23:28:50.987Z,12.8
2019-05-19T23:38:50.136Z,13.1
2019-05-19T23:48:49.398Z,12.8
2019-05-19T23:58:48.695Z,12.5
